sensor_id;sensor_type;location;lat;lon;timestamp;P1;durP1;ratioP1;P2;durP2;ratioP2
23258;SDS011;11798;51.528;7.240;2022-11-15T00:01:45;15.30;;;10.10;;
23258;SDS011;11798;51.528;7.240;2022-11-15T00:04:10;12.07;;;8.93;;
23258;SDS011;11798;51.528;7.240;2022-11-15T00:06:36;12.30;;;9.03;;
23258;SDS011;11798;51.528;7.240;2022-11-15T00:09:02;12.07;;;9.07;;
23258;SDS011;11798;51.528;7.240;2022-11-15T00:11:28;12.60;;;8.97;;
23258;SDS011;11798;51.528;7.240;2022-11-15T00:13:55;14.90;;;9.77;;
23258;SDS011;11798;51.528;7.240;2022-11-15T00:16:21;13.03;;;8.90;;
23258;SDS011;11798;51.528;7.240;2022-11-15T00:18:47;12.70;;;8.83;;
23258;SDS011;11798;51.528;7.240;2022-11-15T00:21:13;12.20;;;8.27;;
23258;SDS011;11798;51.528;7.240;2022-11-15T00:23:40;14.40;;;9.13;;
23258;SDS011;11798;51.528;7.240;2022-11-15T00:26:06;11.73;;;8.83;;
23258;SDS011;11798;51.528;7.240;2022-11-15T00:28:32;12.70;;;9.00;;
23258;SDS011;11798;51.528;7.240;2022-11-15T00:31:05;12.53;;;8.17;;
23258;SDS011;11798;51.528;7.240;2022-11-15T00:33:32;13.53;;;9.40;;
23258;SDS011;11798;51.528;7.240;2022-11-15T00:38:31;13.97;;;8.80;;
23258;SDS011;11798;51.528;7.240;2022-11-15T00:40:58;13.33;;;9.20;;
23258;SDS011;11798;51.528;7.240;2022-11-15T00:43:24;15.03;;;9.63;;
23258;SDS011;11798;51.528;7.240;2022-11-15T00:45:49;10.63;;;7.90;;
23258;SDS011;11798;51.528;7.240;2022-11-15T00:48:15;13.47;;;8.83;;
23258;SDS011;11798;51.528;7.240;2022-11-15T00:50:40;11.97;;;8.90;;
23258;SDS011;11798;51.528;7.240;2022-11-15T00:53:06;13.03;;;8.50;;
23258;SDS011;11798;51.528;7.240;2022-11-15T00:55:31;14.07;;;8.47;;
23258;SDS011;11798;51.528;7.240;2022-11-15T00:57:57;13.40;;;9.03;;
23258;SDS011;11798;51.528;7.240;2022-11-15T01:00:22;14.10;;;8.90;;
23258;SDS011;11798;51.528;7.240;2022-11-15T01:02:48;11.63;;;8.30;;
23258;SDS011;11798;51.528;7.240;2022-11-15T01:05:14;11.57;;;7.83;;
23258;SDS011;11798;51.528;7.240;2022-11-15T01:07:39;12.00;;;8.40;;
23258;SDS011;11798;51.528;7.240;2022-11-15T01:10:05;12.60;;;8.37;;
23258;SDS011;11798;51.528;7.240;2022-11-15T01:12:31;11.20;;;8.13;;
23258;SDS011;11798;51.528;7.240;2022-11-15T01:14:57;11.17;;;9.07;;
23258;SDS011;11798;51.528;7.240;2022-11-15T01:17:23;10.97;;;8.10;;
23258;SDS011;11798;51.528;7.240;2022-11-15T01:19:48;11.80;;;8.50;;
23258;SDS011;11798;51.528;7.240;2022-11-15T01:22:14;10.03;;;8.00;;
23258;SDS011;11798;51.528;7.240;2022-11-15T01:24:40;11.77;;;8.23;;
23258;SDS011;11798;51.528;7.240;2022-11-15T01:27:06;11.60;;;8.27;;
23258;SDS011;11798;51.528;7.240;2022-11-15T01:29:32;14.13;;;8.37;;
23258;SDS011;11798;51.528;7.240;2022-11-15T01:31:58;12.00;;;7.93;;
23258;SDS011;11798;51.528;7.240;2022-11-15T01:34:23;10.63;;;7.80;;
23258;SDS011;11798;51.528;7.240;2022-11-15T01:36:49;12.73;;;8.10;;
23258;SDS011;11798;51.528;7.240;2022-11-15T01:39:15;13.43;;;7.77;;
23258;SDS011;11798;51.528;7.240;2022-11-15T01:41:40;10.27;;;8.10;;
23258;SDS011;11798;51.528;7.240;2022-11-15T01:46:53;12.67;;;8.20;;
23258;SDS011;11798;51.528;7.240;2022-11-15T01:49:19;12.17;;;7.97;;
23258;SDS011;11798;51.528;7.240;2022-11-15T01:51:47;12.50;;;8.23;;
23258;SDS011;11798;51.528;7.240;2022-11-15T01:54:15;12.03;;;7.93;;
23258;SDS011;11798;51.528;7.240;2022-11-15T01:56:46;9.27;;;7.30;;
23258;SDS011;11798;51.528;7.240;2022-11-15T01:59:16;10.67;;;7.87;;
23258;SDS011;11798;51.528;7.240;2022-11-15T02:01:42;9.57;;;8.03;;
23258;SDS011;11798;51.528;7.240;2022-11-15T02:04:13;10.10;;;8.13;;
23258;SDS011;11798;51.528;7.240;2022-11-15T02:06:45;11.67;;;8.40;;
23258;SDS011;11798;51.528;7.240;2022-11-15T02:09:13;12.03;;;7.83;;
23258;SDS011;11798;51.528;7.240;2022-11-15T02:11:39;8.13;;;7.30;;
23258;SDS011;11798;51.528;7.240;2022-11-15T02:14:04;8.93;;;7.17;;
23258;SDS011;11798;51.528;7.240;2022-11-15T02:22:14;14.67;;;7.67;;
23258;SDS011;11798;51.528;7.240;2022-11-15T02:30:17;10.00;;;7.40;;
23258;SDS011;11798;51.528;7.240;2022-11-15T02:32:51;11.23;;;6.87;;
23258;SDS011;11798;51.528;7.240;2022-11-15T02:38:15;10.90;;;7.53;;
23258;SDS011;11798;51.528;7.240;2022-11-15T02:40:48;9.00;;;7.27;;
23258;SDS011;11798;51.528;7.240;2022-11-15T02:43:24;8.97;;;7.17;;
23258;SDS011;11798;51.528;7.240;2022-11-15T02:46:17;9.57;;;6.67;;
23258;SDS011;11798;51.528;7.240;2022-11-15T02:49:08;12.30;;;7.77;;
23258;SDS011;11798;51.528;7.240;2022-11-15T02:51:36;11.90;;;6.97;;
23258;SDS011;11798;51.528;7.240;2022-11-15T02:54:01;10.60;;;7.37;;
23258;SDS011;11798;51.528;7.240;2022-11-15T02:56:27;11.17;;;7.53;;
23258;SDS011;11798;51.528;7.240;2022-11-15T03:04:38;11.30;;;7.73;;
23258;SDS011;11798;51.528;7.240;2022-11-15T03:07:18;12.60;;;8.23;;
23258;SDS011;11798;51.528;7.240;2022-11-15T03:15:02;12.43;;;9.10;;
23258;SDS011;11798;51.528;7.240;2022-11-15T03:17:38;8.90;;;8.00;;
23258;SDS011;11798;51.528;7.240;2022-11-15T03:20:09;14.17;;;8.53;;
23258;SDS011;11798;51.528;7.240;2022-11-15T03:22:37;13.13;;;9.10;;
23258;SDS011;11798;51.528;7.240;2022-11-15T03:25:07;11.33;;;8.33;;
23258;SDS011;11798;51.528;7.240;2022-11-15T03:27:37;13.53;;;8.67;;
23258;SDS011;11798;51.528;7.240;2022-11-15T03:30:07;10.87;;;8.27;;
23258;SDS011;11798;51.528;7.240;2022-11-15T03:32:38;12.87;;;8.70;;
23258;SDS011;11798;51.528;7.240;2022-11-15T03:35:10;11.97;;;8.93;;
23258;SDS011;11798;51.528;7.240;2022-11-15T03:40:15;10.10;;;8.30;;
23258;SDS011;11798;51.528;7.240;2022-11-15T03:42:43;12.77;;;8.90;;
23258;SDS011;11798;51.528;7.240;2022-11-15T03:45:22;13.47;;;8.27;;
23258;SDS011;11798;51.528;7.240;2022-11-15T03:48:02;11.63;;;8.17;;
23258;SDS011;11798;51.528;7.240;2022-11-15T03:50:34;11.33;;;8.37;;
23258;SDS011;11798;51.528;7.240;2022-11-15T03:53:00;11.17;;;8.60;;
23258;SDS011;11798;51.528;7.240;2022-11-15T03:55:27;11.07;;;8.00;;
23258;SDS011;11798;51.528;7.240;2022-11-15T03:57:53;12.23;;;8.63;;
23258;SDS011;11798;51.528;7.240;2022-11-15T04:00:22;12.13;;;8.17;;
23258;SDS011;11798;51.528;7.240;2022-11-15T04:02:48;12.40;;;7.93;;
23258;SDS011;11798;51.528;7.240;2022-11-15T04:05:14;11.80;;;8.00;;
23258;SDS011;11798;51.528;7.240;2022-11-15T04:07:39;9.70;;;7.57;;
23258;SDS011;11798;51.528;7.240;2022-11-15T04:10:05;12.67;;;7.83;;
23258;SDS011;11798;51.528;7.240;2022-11-15T04:12:32;10.43;;;8.10;;
23258;SDS011;11798;51.528;7.240;2022-11-15T04:15:05;11.80;;;7.60;;
23258;SDS011;11798;51.528;7.240;2022-11-15T04:17:34;8.90;;;7.87;;
23258;SDS011;11798;51.528;7.240;2022-11-15T04:20:00;10.23;;;7.87;;
23258;SDS011;11798;51.528;7.240;2022-11-15T04:22:45;12.20;;;7.57;;
23258;SDS011;11798;51.528;7.240;2022-11-15T04:25:29;10.13;;;7.20;;
23258;SDS011;11798;51.528;7.240;2022-11-15T04:27:55;9.47;;;7.40;;
23258;SDS011;11798;51.528;7.240;2022-11-15T04:30:20;11.90;;;7.70;;
23258;SDS011;11798;51.528;7.240;2022-11-15T04:32:46;11.83;;;7.57;;
23258;SDS011;11798;51.528;7.240;2022-11-15T04:35:11;9.30;;;7.87;;
23258;SDS011;11798;51.528;7.240;2022-11-15T04:37:37;13.30;;;7.87;;
23258;SDS011;11798;51.528;7.240;2022-11-15T04:40:02;10.70;;;7.93;;
23258;SDS011;11798;51.528;7.240;2022-11-15T04:42:28;11.63;;;7.53;;
23258;SDS011;11798;51.528;7.240;2022-11-15T04:44:54;11.00;;;7.87;;
23258;SDS011;11798;51.528;7.240;2022-11-15T04:47:20;11.57;;;8.03;;
23258;SDS011;11798;51.528;7.240;2022-11-15T04:49:46;11.83;;;7.27;;
23258;SDS011;11798;51.528;7.240;2022-11-15T04:52:11;12.20;;;8.33;;
23258;SDS011;11798;51.528;7.240;2022-11-15T04:54:37;9.40;;;7.63;;
23258;SDS011;11798;51.528;7.240;2022-11-15T04:57:02;10.03;;;7.47;;
23258;SDS011;11798;51.528;7.240;2022-11-15T04:59:28;9.87;;;7.47;;
23258;SDS011;11798;51.528;7.240;2022-11-15T05:01:54;11.70;;;7.83;;
23258;SDS011;11798;51.528;7.240;2022-11-15T05:04:19;11.70;;;8.47;;
23258;SDS011;11798;51.528;7.240;2022-11-15T05:06:46;10.33;;;8.13;;
23258;SDS011;11798;51.528;7.240;2022-11-15T05:09:12;11.77;;;8.40;;
23258;SDS011;11798;51.528;7.240;2022-11-15T05:11:39;11.13;;;7.43;;
23258;SDS011;11798;51.528;7.240;2022-11-15T05:14:04;9.10;;;7.47;;
23258;SDS011;11798;51.528;7.240;2022-11-15T05:16:30;11.90;;;8.60;;
23258;SDS011;11798;51.528;7.240;2022-11-15T05:18:56;10.33;;;8.17;;
23258;SDS011;11798;51.528;7.240;2022-11-15T05:21:21;9.10;;;7.80;;
23258;SDS011;11798;51.528;7.240;2022-11-15T05:23:47;10.77;;;7.73;;
23258;SDS011;11798;51.528;7.240;2022-11-15T05:26:13;9.70;;;7.73;;
23258;SDS011;11798;51.528;7.240;2022-11-15T05:28:42;12.13;;;8.47;;
23258;SDS011;11798;51.528;7.240;2022-11-15T05:31:10;10.87;;;8.10;;
23258;SDS011;11798;51.528;7.240;2022-11-15T05:33:37;11.00;;;7.83;;
23258;SDS011;11798;51.528;7.240;2022-11-15T05:36:15;11.50;;;7.97;;
23258;SDS011;11798;51.528;7.240;2022-11-15T05:38:48;10.60;;;7.97;;
23258;SDS011;11798;51.528;7.240;2022-11-15T05:41:15;11.33;;;7.87;;
23258;SDS011;11798;51.528;7.240;2022-11-15T05:43:43;9.47;;;8.47;;
23258;SDS011;11798;51.528;7.240;2022-11-15T05:46:10;9.97;;;8.07;;
23258;SDS011;11798;51.528;7.240;2022-11-15T05:48:37;10.47;;;8.83;;
23258;SDS011;11798;51.528;7.240;2022-11-15T05:51:08;8.97;;;8.03;;
23258;SDS011;11798;51.528;7.240;2022-11-15T05:53:34;10.83;;;8.90;;
23258;SDS011;11798;51.528;7.240;2022-11-15T05:56:02;9.97;;;7.53;;
23258;SDS011;11798;51.528;7.240;2022-11-15T05:58:28;10.17;;;8.20;;
23258;SDS011;11798;51.528;7.240;2022-11-15T06:00:57;10.67;;;7.83;;
23258;SDS011;11798;51.528;7.240;2022-11-15T06:03:22;10.97;;;8.30;;
23258;SDS011;11798;51.528;7.240;2022-11-15T06:05:48;14.23;;;9.23;;
23258;SDS011;11798;51.528;7.240;2022-11-15T06:08:13;13.83;;;8.37;;
23258;SDS011;11798;51.528;7.240;2022-11-15T06:10:39;11.20;;;8.53;;
23258;SDS011;11798;51.528;7.240;2022-11-15T06:13:04;12.10;;;8.17;;
23258;SDS011;11798;51.528;7.240;2022-11-15T06:15:31;11.00;;;8.37;;
23258;SDS011;11798;51.528;7.240;2022-11-15T06:17:58;12.03;;;8.37;;
23258;SDS011;11798;51.528;7.240;2022-11-15T06:20:24;9.80;;;8.50;;
23258;SDS011;11798;51.528;7.240;2022-11-15T06:22:50;10.03;;;8.00;;
23258;SDS011;11798;51.528;7.240;2022-11-15T06:25:20;10.17;;;8.10;;
23258;SDS011;11798;51.528;7.240;2022-11-15T06:27:50;10.60;;;8.33;;
23258;SDS011;11798;51.528;7.240;2022-11-15T06:30:17;10.37;;;7.90;;
23258;SDS011;11798;51.528;7.240;2022-11-15T06:32:42;10.67;;;7.80;;
23258;SDS011;11798;51.528;7.240;2022-11-15T06:35:08;11.10;;;7.97;;
23258;SDS011;11798;51.528;7.240;2022-11-15T06:37:33;8.53;;;7.63;;
23258;SDS011;11798;51.528;7.240;2022-11-15T06:39:59;10.27;;;7.67;;
23258;SDS011;11798;51.528;7.240;2022-11-15T06:42:24;9.83;;;7.20;;
23258;SDS011;11798;51.528;7.240;2022-11-15T06:44:50;7.83;;;7.03;;
23258;SDS011;11798;51.528;7.240;2022-11-15T06:47:16;7.27;;;5.80;;
23258;SDS011;11798;51.528;7.240;2022-11-15T06:49:41;6.60;;;5.53;;
23258;SDS011;11798;51.528;7.240;2022-11-15T06:52:07;7.60;;;6.20;;
23258;SDS011;11798;51.528;7.240;2022-11-15T06:54:32;7.30;;;5.63;;
23258;SDS011;11798;51.528;7.240;2022-11-15T06:56:58;8.50;;;5.40;;
23258;SDS011;11798;51.528;7.240;2022-11-15T06:59:23;7.20;;;4.83;;
23258;SDS011;11798;51.528;7.240;2022-11-15T07:01:49;5.53;;;4.50;;
23258;SDS011;11798;51.528;7.240;2022-11-15T07:04:14;5.17;;;4.67;;
23258;SDS011;11798;51.528;7.240;2022-11-15T07:06:40;6.87;;;4.70;;
23258;SDS011;11798;51.528;7.240;2022-11-15T07:09:06;7.13;;;4.80;;
23258;SDS011;11798;51.528;7.240;2022-11-15T07:11:32;5.20;;;4.57;;
23258;SDS011;11798;51.528;7.240;2022-11-15T07:13:59;4.83;;;4.10;;
23258;SDS011;11798;51.528;7.240;2022-11-15T07:16:25;4.80;;;4.27;;
23258;SDS011;11798;51.528;7.240;2022-11-15T07:18:51;3.93;;;3.60;;
23258;SDS011;11798;51.528;7.240;2022-11-15T07:21:16;5.47;;;4.50;;
23258;SDS011;11798;51.528;7.240;2022-11-15T07:23:42;5.73;;;4.13;;
23258;SDS011;11798;51.528;7.240;2022-11-15T07:26:07;7.83;;;4.63;;
23258;SDS011;11798;51.528;7.240;2022-11-15T07:28:34;7.47;;;3.80;;
23258;SDS011;11798;51.528;7.240;2022-11-15T07:31:06;4.60;;;3.40;;
23258;SDS011;11798;51.528;7.240;2022-11-15T07:33:33;5.83;;;3.70;;
23258;SDS011;11798;51.528;7.240;2022-11-15T07:36:00;4.37;;;3.47;;
23258;SDS011;11798;51.528;7.240;2022-11-15T07:38:29;3.73;;;3.13;;
23258;SDS011;11798;51.528;7.240;2022-11-15T07:40:56;4.33;;;3.33;;
23258;SDS011;11798;51.528;7.240;2022-11-15T07:43:26;6.47;;;3.37;;
23258;SDS011;11798;51.528;7.240;2022-11-15T07:45:55;3.33;;;2.87;;
23258;SDS011;11798;51.528;7.240;2022-11-15T07:48:22;4.23;;;3.27;;
23258;SDS011;11798;51.528;7.240;2022-11-15T07:50:48;4.13;;;3.10;;
23258;SDS011;11798;51.528;7.240;2022-11-15T07:53:13;3.93;;;3.00;;
23258;SDS011;11798;51.528;7.240;2022-11-15T07:55:40;5.23;;;3.43;;
23258;SDS011;11798;51.528;7.240;2022-11-15T07:58:07;4.47;;;2.97;;
23258;SDS011;11798;51.528;7.240;2022-11-15T08:00:35;3.47;;;3.00;;
23258;SDS011;11798;51.528;7.240;2022-11-15T08:03:05;4.80;;;3.30;;
23258;SDS011;11798;51.528;7.240;2022-11-15T08:05:32;4.43;;;3.20;;
23258;SDS011;11798;51.528;7.240;2022-11-15T08:07:59;4.80;;;3.30;;
23258;SDS011;11798;51.528;7.240;2022-11-15T08:10:25;5.27;;;3.50;;
23258;SDS011;11798;51.528;7.240;2022-11-15T08:12:58;3.67;;;2.90;;
23258;SDS011;11798;51.528;7.240;2022-11-15T08:15:32;4.30;;;2.93;;
23258;SDS011;11798;51.528;7.240;2022-11-15T08:18:00;3.33;;;2.50;;
23258;SDS011;11798;51.528;7.240;2022-11-15T08:20:44;3.07;;;2.70;;
23258;SDS011;11798;51.528;7.240;2022-11-15T08:23:10;3.77;;;3.17;;
23258;SDS011;11798;51.528;7.240;2022-11-15T08:25:37;3.37;;;2.83;;
23258;SDS011;11798;51.528;7.240;2022-11-15T08:28:04;3.80;;;2.37;;
23258;SDS011;11798;51.528;7.240;2022-11-15T08:30:34;5.67;;;2.80;;
23258;SDS011;11798;51.528;7.240;2022-11-15T08:33:09;2.57;;;2.37;;
23258;SDS011;11798;51.528;7.240;2022-11-15T08:35:36;4.80;;;2.00;;
23258;SDS011;11798;51.528;7.240;2022-11-15T08:38:01;3.53;;;2.33;;
23258;SDS011;11798;51.528;7.240;2022-11-15T08:40:27;5.27;;;2.27;;
23258;SDS011;11798;51.528;7.240;2022-11-15T08:42:52;2.70;;;2.20;;
23258;SDS011;11798;51.528;7.240;2022-11-15T08:45:18;4.50;;;2.40;;
23258;SDS011;11798;51.528;7.240;2022-11-15T08:47:44;3.87;;;2.20;;
23258;SDS011;11798;51.528;7.240;2022-11-15T08:50:09;2.43;;;2.13;;
23258;SDS011;11798;51.528;7.240;2022-11-15T08:52:35;3.33;;;2.13;;
23258;SDS011;11798;51.528;7.240;2022-11-15T08:55:01;4.37;;;2.33;;
23258;SDS011;11798;51.528;7.240;2022-11-15T08:57:28;2.60;;;2.03;;
23258;SDS011;11798;51.528;7.240;2022-11-15T08:59:55;3.80;;;2.30;;
23258;SDS011;11798;51.528;7.240;2022-11-15T09:02:21;3.43;;;2.20;;
23258;SDS011;11798;51.528;7.240;2022-11-15T09:04:46;3.87;;;2.20;;
23258;SDS011;11798;51.528;7.240;2022-11-15T09:07:13;3.00;;;1.90;;
23258;SDS011;11798;51.528;7.240;2022-11-15T09:09:39;3.30;;;2.07;;
23258;SDS011;11798;51.528;7.240;2022-11-15T09:12:05;4.93;;;1.90;;
23258;SDS011;11798;51.528;7.240;2022-11-15T09:14:32;2.80;;;1.90;;
23258;SDS011;11798;51.528;7.240;2022-11-15T09:16:58;3.13;;;1.97;;
23258;SDS011;11798;51.528;7.240;2022-11-15T09:19:24;4.70;;;2.47;;
23258;SDS011;11798;51.528;7.240;2022-11-15T09:21:49;3.73;;;1.70;;
23258;SDS011;11798;51.528;7.240;2022-11-15T09:24:15;5.47;;;2.20;;
23258;SDS011;11798;51.528;7.240;2022-11-15T09:26:42;1.87;;;1.50;;
23258;SDS011;11798;51.528;7.240;2022-11-15T09:29:07;2.07;;;1.87;;
23258;SDS011;11798;51.528;7.240;2022-11-15T09:31:33;2.90;;;1.70;;
23258;SDS011;11798;51.528;7.240;2022-11-15T09:33:58;2.17;;;1.43;;
23258;SDS011;11798;51.528;7.240;2022-11-15T09:36:24;3.47;;;1.60;;
23258;SDS011;11798;51.528;7.240;2022-11-15T09:38:50;4.50;;;1.60;;
23258;SDS011;11798;51.528;7.240;2022-11-15T09:51:36;2.77;;;1.63;;
23258;SDS011;11798;51.528;7.240;2022-11-15T09:54:30;1.97;;;1.60;;
23258;SDS011;11798;51.528;7.240;2022-11-15T09:59:51;3.77;;;1.40;;
23258;SDS011;11798;51.528;7.240;2022-11-15T10:05:20;1.73;;;1.30;;
23258;SDS011;11798;51.528;7.240;2022-11-15T10:10:43;1.40;;;1.30;;
23258;SDS011;11798;51.528;7.240;2022-11-15T10:13:25;2.77;;;1.33;;
23258;SDS011;11798;51.528;7.240;2022-11-15T10:15:54;4.47;;;1.30;;
23258;SDS011;11798;51.528;7.240;2022-11-15T10:18:35;2.50;;;1.30;;
23258;SDS011;11798;51.528;7.240;2022-11-15T10:24:11;1.57;;;1.20;;
23258;SDS011;11798;51.528;7.240;2022-11-15T10:26:38;1.47;;;1.20;;
23258;SDS011;11798;51.528;7.240;2022-11-15T10:29:10;2.73;;;1.20;;
23258;SDS011;11798;51.528;7.240;2022-11-15T10:31:37;2.33;;;1.13;;
23258;SDS011;11798;51.528;7.240;2022-11-15T10:34:12;1.00;;;1.00;;
23258;SDS011;11798;51.528;7.240;2022-11-15T10:36:46;3.63;;;1.00;;
23258;SDS011;11798;51.528;7.240;2022-11-15T10:39:22;1.00;;;0.87;;
23258;SDS011;11798;51.528;7.240;2022-11-15T10:41:48;4.40;;;1.23;;
23258;SDS011;11798;51.528;7.240;2022-11-15T10:46:44;3.20;;;1.50;;
23258;SDS011;11798;51.528;7.240;2022-11-15T10:49:16;4.13;;;1.37;;
23258;SDS011;11798;51.528;7.240;2022-11-15T10:52:00;2.07;;;1.10;;
23258;SDS011;11798;51.528;7.240;2022-11-15T10:54:45;2.23;;;1.10;;
23258;SDS011;11798;51.528;7.240;2022-11-15T10:57:14;2.10;;;1.03;;
23258;SDS011;11798;51.528;7.240;2022-11-15T10:59:48;3.03;;;1.27;;
23258;SDS011;11798;51.528;7.240;2022-11-15T11:04:54;1.70;;;1.20;;
23258;SDS011;11798;51.528;7.240;2022-11-15T11:07:21;2.37;;;1.13;;
23258;SDS011;11798;51.528;7.240;2022-11-15T11:09:56;3.03;;;1.20;;
23258;SDS011;11798;51.528;7.240;2022-11-15T11:12:27;3.23;;;1.40;;
23258;SDS011;11798;51.528;7.240;2022-11-15T11:14:55;1.73;;;1.17;;
23258;SDS011;11798;51.528;7.240;2022-11-15T11:25:54;1.30;;;1.00;;
23258;SDS011;11798;51.528;7.240;2022-11-15T11:31:49;3.77;;;1.40;;
23258;SDS011;11798;51.528;7.240;2022-11-15T11:34:40;2.80;;;1.10;;
23258;SDS011;11798;51.528;7.240;2022-11-15T11:37:50;2.93;;;0.97;;
23258;SDS011;11798;51.528;7.240;2022-11-15T11:48:51;1.30;;;1.00;;
23258;SDS011;11798;51.528;7.240;2022-11-15T11:51:41;2.07;;;1.10;;
23258;SDS011;11798;51.528;7.240;2022-11-15T11:54:14;3.50;;;1.13;;
23258;SDS011;11798;51.528;7.240;2022-11-15T11:56:43;2.17;;;0.90;;
23258;SDS011;11798;51.528;7.240;2022-11-15T11:59:22;4.77;;;1.50;;
23258;SDS011;11798;51.528;7.240;2022-11-15T12:01:57;2.10;;;1.17;;
23258;SDS011;11798;51.528;7.240;2022-11-15T12:04:40;2.60;;;1.20;;
23258;SDS011;11798;51.528;7.240;2022-11-15T12:07:14;1.37;;;1.00;;
23258;SDS011;11798;51.528;7.240;2022-11-15T12:09:55;1.90;;;1.17;;
23258;SDS011;11798;51.528;7.240;2022-11-15T12:12:41;2.03;;;1.27;;
23258;SDS011;11798;51.528;7.240;2022-11-15T12:15:20;3.40;;;1.60;;
23258;SDS011;11798;51.528;7.240;2022-11-15T12:17:50;2.07;;;1.30;;
23258;SDS011;11798;51.528;7.240;2022-11-15T12:20:17;3.43;;;0.80;;
23258;SDS011;11798;51.528;7.240;2022-11-15T12:25:50;2.97;;;1.00;;
23258;SDS011;11798;51.528;7.240;2022-11-15T12:31:11;2.70;;;1.30;;
23258;SDS011;11798;51.528;7.240;2022-11-15T12:33:46;2.03;;;1.53;;
23258;SDS011;11798;51.528;7.240;2022-11-15T12:38:58;2.77;;;1.00;;
23258;SDS011;11798;51.528;7.240;2022-11-15T12:41:29;2.03;;;0.80;;
23258;SDS011;11798;51.528;7.240;2022-11-15T12:43:56;1.87;;;0.80;;
23258;SDS011;11798;51.528;7.240;2022-11-15T12:49:41;2.23;;;0.90;;
23258;SDS011;11798;51.528;7.240;2022-11-15T13:13:12;1.13;;;0.90;;
23258;SDS011;11798;51.528;7.240;2022-11-15T13:16:00;2.50;;;0.83;;
23258;SDS011;11798;51.528;7.240;2022-11-15T13:20:55;1.50;;;1.00;;
23258;SDS011;11798;51.528;7.240;2022-11-15T13:23:21;3.30;;;1.00;;
23258;SDS011;11798;51.528;7.240;2022-11-15T13:37:00;1.60;;;0.73;;
23258;SDS011;11798;51.528;7.240;2022-11-15T13:41:57;1.87;;;0.80;;
23258;SDS011;11798;51.528;7.240;2022-11-15T13:44:24;4.13;;;1.37;;
23258;SDS011;11798;51.528;7.240;2022-11-15T13:47:01;3.23;;;1.50;;
23258;SDS011;11798;51.528;7.240;2022-11-15T13:49:40;3.83;;;0.90;;
23258;SDS011;11798;51.528;7.240;2022-11-15T13:52:07;5.70;;;1.10;;
23258;SDS011;11798;51.528;7.240;2022-11-15T13:54:38;2.70;;;1.20;;
23258;SDS011;11798;51.528;7.240;2022-11-15T13:57:26;2.27;;;1.00;;
23258;SDS011;11798;51.528;7.240;2022-11-15T13:59:56;3.40;;;1.20;;
23258;SDS011;11798;51.528;7.240;2022-11-15T14:02:26;3.83;;;1.20;;
23258;SDS011;11798;51.528;7.240;2022-11-15T14:04:56;3.77;;;1.10;;
23258;SDS011;11798;51.528;7.240;2022-11-15T14:07:30;1.30;;;0.90;;
23258;SDS011;11798;51.528;7.240;2022-11-15T14:09:57;3.10;;;1.00;;
23258;SDS011;11798;51.528;7.240;2022-11-15T14:15:01;2.57;;;1.07;;
23258;SDS011;11798;51.528;7.240;2022-11-15T14:17:44;3.63;;;0.90;;
23258;SDS011;11798;51.528;7.240;2022-11-15T14:23:18;2.10;;;1.10;;
23258;SDS011;11798;51.528;7.240;2022-11-15T14:25:52;5.43;;;1.30;;
23258;SDS011;11798;51.528;7.240;2022-11-15T14:30:47;4.13;;;1.50;;
23258;SDS011;11798;51.528;7.240;2022-11-15T14:33:19;3.47;;;1.30;;
23258;SDS011;11798;51.528;7.240;2022-11-15T14:35:48;3.03;;;1.20;;
23258;SDS011;11798;51.528;7.240;2022-11-15T14:38:15;4.57;;;1.57;;
23258;SDS011;11798;51.528;7.240;2022-11-15T14:40:41;3.80;;;1.40;;
23258;SDS011;11798;51.528;7.240;2022-11-15T14:43:08;5.50;;;2.00;;
23258;SDS011;11798;51.528;7.240;2022-11-15T14:45:37;3.13;;;1.67;;
23258;SDS011;11798;51.528;7.240;2022-11-15T14:48:03;4.17;;;1.67;;
23258;SDS011;11798;51.528;7.240;2022-11-15T14:50:29;3.67;;;1.60;;
23258;SDS011;11798;51.528;7.240;2022-11-15T14:52:56;5.50;;;1.60;;
23258;SDS011;11798;51.528;7.240;2022-11-15T14:55:26;2.50;;;1.70;;
23258;SDS011;11798;51.528;7.240;2022-11-15T14:57:53;3.63;;;1.83;;
23258;SDS011;11798;51.528;7.240;2022-11-15T15:00:20;4.17;;;1.97;;
23258;SDS011;11798;51.528;7.240;2022-11-15T15:02:46;5.87;;;2.20;;
23258;SDS011;11798;51.528;7.240;2022-11-15T15:05:23;4.80;;;1.63;;
23258;SDS011;11798;51.528;7.240;2022-11-15T15:07:55;3.93;;;1.80;;
23258;SDS011;11798;51.528;7.240;2022-11-15T15:10:21;3.77;;;2.40;;
23258;SDS011;11798;51.528;7.240;2022-11-15T15:12:47;4.77;;;2.60;;
23258;SDS011;11798;51.528;7.240;2022-11-15T15:15:14;2.87;;;1.90;;
23258;SDS011;11798;51.528;7.240;2022-11-15T15:17:46;3.37;;;2.20;;
23258;SDS011;11798;51.528;7.240;2022-11-15T15:20:12;4.27;;;2.00;;
23258;SDS011;11798;51.528;7.240;2022-11-15T15:22:37;3.20;;;1.87;;
23258;SDS011;11798;51.528;7.240;2022-11-15T15:25:10;3.03;;;2.30;;
23258;SDS011;11798;51.528;7.240;2022-11-15T15:27:43;2.77;;;1.67;;
23258;SDS011;11798;51.528;7.240;2022-11-15T15:30:09;2.77;;;1.90;;
23258;SDS011;11798;51.528;7.240;2022-11-15T15:32:35;3.00;;;2.00;;
23258;SDS011;11798;51.528;7.240;2022-11-15T15:35:01;2.67;;;1.93;;
23258;SDS011;11798;51.528;7.240;2022-11-15T15:37:26;4.17;;;1.87;;
23258;SDS011;11798;51.528;7.240;2022-11-15T15:39:52;4.13;;;2.13;;
23258;SDS011;11798;51.528;7.240;2022-11-15T15:42:20;3.67;;;2.10;;
23258;SDS011;11798;51.528;7.240;2022-11-15T15:44:47;4.73;;;2.40;;
23258;SDS011;11798;51.528;7.240;2022-11-15T15:47:13;3.10;;;1.80;;
23258;SDS011;11798;51.528;7.240;2022-11-15T15:49:42;2.57;;;2.23;;
23258;SDS011;11798;51.528;7.240;2022-11-15T15:52:07;4.97;;;2.10;;
23258;SDS011;11798;51.528;7.240;2022-11-15T15:54:33;3.13;;;2.00;;
23258;SDS011;11798;51.528;7.240;2022-11-15T15:56:58;3.70;;;2.00;;
23258;SDS011;11798;51.528;7.240;2022-11-15T15:59:24;4.37;;;2.00;;
23258;SDS011;11798;51.528;7.240;2022-11-15T16:01:50;4.10;;;1.97;;
23258;SDS011;11798;51.528;7.240;2022-11-15T16:04:15;3.83;;;2.00;;
23258;SDS011;11798;51.528;7.240;2022-11-15T16:06:41;4.33;;;2.40;;
23258;SDS011;11798;51.528;7.240;2022-11-15T16:09:12;4.30;;;2.23;;
23258;SDS011;11798;51.528;7.240;2022-11-15T16:11:39;2.77;;;2.13;;
23258;SDS011;11798;51.528;7.240;2022-11-15T16:14:05;3.40;;;2.60;;
23258;SDS011;11798;51.528;7.240;2022-11-15T16:16:30;5.50;;;2.23;;
23258;SDS011;11798;51.528;7.240;2022-11-15T16:18:56;4.93;;;2.40;;
23258;SDS011;11798;51.528;7.240;2022-11-15T16:21:22;4.73;;;2.60;;
23258;SDS011;11798;51.528;7.240;2022-11-15T16:23:48;5.20;;;2.50;;
23258;SDS011;11798;51.528;7.240;2022-11-15T16:28:46;5.33;;;2.60;;
23258;SDS011;11798;51.528;7.240;2022-11-15T16:31:12;6.07;;;2.60;;
23258;SDS011;11798;51.528;7.240;2022-11-15T16:33:38;6.80;;;2.50;;
23258;SDS011;11798;51.528;7.240;2022-11-15T16:36:05;5.00;;;2.77;;
23258;SDS011;11798;51.528;7.240;2022-11-15T16:38:37;6.93;;;2.63;;
23258;SDS011;11798;51.528;7.240;2022-11-15T16:41:04;4.67;;;2.50;;
23258;SDS011;11798;51.528;7.240;2022-11-15T16:43:29;6.67;;;2.30;;
23258;SDS011;11798;51.528;7.240;2022-11-15T16:45:55;5.10;;;2.83;;
23258;SDS011;11798;51.528;7.240;2022-11-15T16:48:22;3.90;;;2.30;;
23258;SDS011;11798;51.528;7.240;2022-11-15T16:50:49;3.27;;;2.10;;
23258;SDS011;11798;51.528;7.240;2022-11-15T16:53:15;3.40;;;2.20;;
23258;SDS011;11798;51.528;7.240;2022-11-15T16:55:40;4.43;;;2.30;;
23258;SDS011;11798;51.528;7.240;2022-11-15T16:58:07;3.23;;;2.23;;
23258;SDS011;11798;51.528;7.240;2022-11-15T17:00:34;4.73;;;2.30;;
23258;SDS011;11798;51.528;7.240;2022-11-15T17:03:00;3.67;;;2.00;;
23258;SDS011;11798;51.528;7.240;2022-11-15T17:05:27;3.43;;;2.40;;
23258;SDS011;11798;51.528;7.240;2022-11-15T17:07:53;4.20;;;2.43;;
23258;SDS011;11798;51.528;7.240;2022-11-15T17:10:22;2.87;;;2.13;;
23258;SDS011;11798;51.528;7.240;2022-11-15T17:12:49;4.13;;;2.20;;